createdAt,value
2022-12-22T00:01:49.701Z,1.60
2022-12-22T00:04:35.567Z,1.60
2022-12-22T00:07:20.925Z,1.50
2022-12-22T00:10:06.765Z,1.50
2022-12-22T00:12:52.565Z,1.50
2022-12-22T00:15:38.835Z,1.40
2022-12-22T00:18:24.892Z,1.40
2022-12-22T00:21:10.403Z,1.40
2022-12-22T00:23:56.049Z,1.40
2022-12-22T00:26:41.504Z,1.40
2022-12-22T00:29:33.413Z,1.40
2022-12-22T00:32:20.404Z,1.40
2022-12-22T00:35:06.519Z,1.40
2022-12-22T00:37:54.562Z,1.40
2022-12-22T00:40:44.932Z,1.40
2022-12-22T00:43:30.564Z,1.40
2022-12-22T00:46:17.345Z,1.40
2022-12-22T00:49:03.072Z,1.40
2022-12-22T00:51:49.555Z,1.40
2022-12-22T00:54:37.129Z,1.40
2022-12-22T00:57:23.092Z,1.40
2022-12-22T01:00:09.570Z,1.40
2022-12-22T01:02:55.156Z,1.40
2022-12-22T01:05:40.700Z,1.40
2022-12-22T01:08:29.383Z,1.40
2022-12-22T01:11:15.009Z,1.40
2022-12-22T01:14:00.503Z,1.40
2022-12-22T01:16:46.118Z,1.40
2022-12-22T01:19:31.611Z,1.40
2022-12-22T01:22:17.314Z,1.40
2022-12-22T01:25:03.772Z,1.40
2022-12-22T01:27:49.443Z,1.40
2022-12-22T01:30:35.111Z,1.40
2022-12-22T01:33:20.536Z,1.40
2022-12-22T01:36:06.230Z,1.40
2022-12-22T01:38:51.756Z,1.40
2022-12-22T01:41:39.792Z,1.50
2022-12-22T01:44:36.199Z,1.40
2022-12-22T01:47:46.334Z,1.50
2022-12-22T01:50:49.654Z,1.60
2022-12-22T01:53:39.139Z,1.60
2022-12-22T01:56:25.375Z,1.60
2022-12-22T01:59:14.248Z,1.60
2022-12-22T02:02:00.683Z,1.60
2022-12-22T02:04:50.990Z,1.60
2022-12-22T02:08:18.955Z,1.60
2022-12-22T02:11:04.444Z,1.60
2022-12-22T02:14:00.212Z,1.60
2022-12-22T02:16:53.832Z,1.60
2022-12-22T02:20:09.005Z,1.60
2022-12-22T02:22:58.334Z,1.60
2022-12-22T02:26:05.900Z,1.60
2022-12-22T02:28:51.853Z,1.60
2022-12-22T02:31:37.913Z,1.50
2022-12-22T02:34:23.332Z,1.50
2022-12-22T02:37:22.989Z,1.50
2022-12-22T02:40:21.951Z,1.50
2022-12-22T02:43:24.887Z,1.50
2022-12-22T02:46:33.482Z,1.50
2022-12-22T02:49:49.805Z,1.50
2022-12-22T02:52:45.850Z,1.50
2022-12-22T02:55:31.992Z,1.50
2022-12-22T02:58:20.550Z,1.50
2022-12-22T03:01:07.082Z,1.50
2022-12-22T03:03:52.708Z,1.50
2022-12-22T03:06:37.965Z,1.50
2022-12-22T03:09:23.336Z,1.50
2022-12-22T03:12:09.325Z,1.50
2022-12-22T03:14:54.772Z,1.50
2022-12-22T03:17:40.264Z,1.40
2022-12-22T03:20:26.312Z,1.40
2022-12-22T03:23:11.790Z,1.40
2022-12-22T03:25:52.297Z,1.40
2022-12-22T03:28:21.093Z,1.50
2022-12-22T03:31:00.672Z,1.50
2022-12-22T03:33:28.872Z,1.50
2022-12-22T03:35:55.714Z,1.50
2022-12-22T03:38:22.500Z,1.50
2022-12-22T03:40:49.379Z,1.50
2022-12-22T03:43:35.339Z,1.50
2022-12-22T03:46:29.318Z,1.50
2022-12-22T03:49:12.743Z,1.50
2022-12-22T03:51:50.967Z,1.60
2022-12-22T03:54:22.636Z,1.50
2022-12-22T03:56:49.927Z,1.50
2022-12-22T03:59:18.051Z,1.50
2022-12-22T04:01:48.359Z,1.50
2022-12-22T04:04:16.611Z,1.50
2022-12-22T04:06:44.016Z,1.50
2022-12-22T04:09:10.961Z,1.50
2022-12-22T04:11:56.097Z,1.50
2022-12-22T04:14:26.648Z,1.60
2022-12-22T04:16:58.309Z,1.60
2022-12-22T04:19:25.296Z,1.60
2022-12-22T04:21:52.107Z,1.60
2022-12-22T04:24:18.882Z,1.60
2022-12-22T04:26:45.771Z,1.60
2022-12-22T04:29:12.556Z,1.60
2022-12-22T04:31:39.438Z,1.60
2022-12-22T04:34:06.314Z,1.60
2022-12-22T04:36:33.143Z,1.60
2022-12-22T04:38:59.944Z,1.60
2022-12-22T04:41:26.817Z,1.60
2022-12-22T04:43:53.603Z,1.60
2022-12-22T04:46:20.511Z,1.60
2022-12-22T04:48:47.370Z,1.60
2022-12-22T04:51:14.121Z,1.60
2022-12-22T04:53:40.887Z,1.60
2022-12-22T04:56:09.017Z,1.60
2022-12-22T04:58:36.275Z,1.60
2022-12-22T05:01:11.321Z,1.60
2022-12-22T05:03:38.465Z,1.60
2022-12-22T05:06:05.988Z,1.60
2022-12-22T05:08:32.851Z,1.60
2022-12-22T05:10:59.589Z,1.60
2022-12-22T05:13:26.504Z,1.60
2022-12-22T05:15:53.350Z,1.60
2022-12-22T05:18:20.210Z,1.60
2022-12-22T05:20:46.987Z,1.60
2022-12-22T05:23:13.773Z,1.60
2022-12-22T05:25:40.626Z,1.70
2022-12-22T05:28:07.360Z,1.70
2022-12-22T05:30:34.199Z,1.70
2022-12-22T05:33:01.003Z,1.70
2022-12-22T05:35:27.823Z,1.70
2022-12-22T05:37:54.631Z,1.70
2022-12-22T05:40:21.390Z,1.80
2022-12-22T05:42:48.172Z,1.80
2022-12-22T05:45:17.936Z,1.80
2022-12-22T05:47:46.961Z,1.80
2022-12-22T05:50:15.375Z,1.80
2022-12-22T05:52:42.259Z,1.80
2022-12-22T05:55:10.149Z,1.70
2022-12-22T05:57:37.323Z,1.80
2022-12-22T06:00:06.838Z,1.80
2022-12-22T06:02:33.749Z,1.70
2022-12-22T06:05:00.734Z,1.70
2022-12-22T06:07:27.620Z,1.80
2022-12-22T06:09:54.448Z,1.70
2022-12-22T06:12:21.344Z,1.70
2022-12-22T06:14:48.201Z,1.80
2022-12-22T06:17:14.976Z,1.70
2022-12-22T06:19:41.758Z,1.80
2022-12-22T06:22:08.640Z,1.80
2022-12-22T06:24:35.581Z,1.80
2022-12-22T06:27:02.373Z,1.80
2022-12-22T06:29:29.166Z,1.80
2022-12-22T06:31:55.945Z,1.80
2022-12-22T06:34:22.897Z,1.80
2022-12-22T06:36:50.045Z,1.80
2022-12-22T06:39:17.378Z,1.80
2022-12-22T06:42:03.058Z,1.80
2022-12-22T06:44:30.482Z,1.80
2022-12-22T06:46:57.404Z,1.80
2022-12-22T06:49:24.267Z,1.80
2022-12-22T06:51:51.131Z,1.80
2022-12-22T06:54:23.944Z,1.80
2022-12-22T06:56:52.797Z,1.80
2022-12-22T06:59:19.716Z,1.90
2022-12-22T07:01:46.589Z,1.80
2022-12-22T07:04:19.670Z,1.90
2022-12-22T07:06:47.897Z,1.80
2022-12-22T07:09:14.931Z,1.80
2022-12-22T07:11:42.054Z,1.80
2022-12-22T07:14:08.903Z,1.80
2022-12-22T07:16:35.785Z,1.80
2022-12-22T07:19:02.806Z,1.80
2022-12-22T07:21:29.783Z,1.80
2022-12-22T07:23:56.614Z,1.80
2022-12-22T07:26:23.394Z,1.80
2022-12-22T07:28:50.241Z,1.80
2022-12-22T07:31:17.814Z,1.80
2022-12-22T07:33:44.694Z,1.80
2022-12-22T07:36:15.228Z,1.80
2022-12-22T07:38:44.734Z,1.80
2022-12-22T07:41:31.876Z,1.80
2022-12-22T07:44:00.203Z,1.80
2022-12-22T07:46:30.044Z,1.80
2022-12-22T07:49:16.067Z,1.90
2022-12-22T07:51:43.361Z,1.90
2022-12-22T07:54:13.370Z,1.90
2022-12-22T07:56:40.794Z,1.90
2022-12-22T07:59:08.530Z,1.90
2022-12-22T08:01:35.473Z,1.90
2022-12-22T08:04:02.422Z,1.90
2022-12-22T08:06:29.405Z,2.00
2022-12-22T08:08:56.196Z,2.00
2022-12-22T08:11:23.038Z,2.00
2022-12-22T08:13:49.858Z,2.00
2022-12-22T08:16:17.965Z,2.10
2022-12-22T08:18:44.890Z,2.10
2022-12-22T08:21:11.738Z,2.10
2022-12-22T08:23:41.710Z,2.10
2022-12-22T08:26:15.028Z,2.10
2022-12-22T08:28:48.812Z,2.10
2022-12-22T08:31:15.910Z,2.10
2022-12-22T08:33:43.057Z,2.20
2022-12-22T08:36:13.469Z,2.20
2022-12-22T08:38:41.698Z,2.20
2022-12-22T08:41:10.659Z,2.20
2022-12-22T08:43:37.421Z,2.30
2022-12-22T08:46:04.636Z,2.20
2022-12-22T08:48:32.656Z,2.20
2022-12-22T08:50:59.574Z,2.20
2022-12-22T08:54:02.460Z,2.30
2022-12-22T08:56:13.203Z,2.30
2022-12-22T08:58:40.268Z,2.30
2022-12-22T09:01:07.198Z,2.30
2022-12-22T09:03:34.115Z,2.30
2022-12-22T09:06:04.395Z,2.30
2022-12-22T09:08:33.581Z,2.30
2022-12-22T09:11:04.238Z,2.30
2022-12-22T09:13:30.929Z,2.40
2022-12-22T09:15:58.016Z,2.40
2022-12-22T09:18:24.842Z,2.40
2022-12-22T09:20:55.708Z,2.40
2022-12-22T09:23:22.559Z,2.40
2022-12-22T09:25:49.444Z,2.40
2022-12-22T09:28:16.297Z,2.40
2022-12-22T09:30:43.270Z,2.50
2022-12-22T09:33:10.165Z,2.50
2022-12-22T09:35:41.610Z,2.50
2022-12-22T09:38:08.394Z,2.50
2022-12-22T09:40:35.429Z,2.60
2022-12-22T09:43:04.223Z,2.60
2022-12-22T09:45:33.518Z,2.60
2022-12-22T09:48:01.625Z,2.60
2022-12-22T09:50:30.530Z,2.60
2022-12-22T09:53:05.150Z,2.70
2022-12-22T09:55:44.840Z,2.70
2022-12-22T09:58:34.773Z,2.70
2022-12-22T10:01:40.422Z,2.80
2022-12-22T10:04:30.715Z,2.80
2022-12-22T10:07:22.539Z,2.80
2022-12-22T10:09:51.304Z,2.90
2022-12-22T10:12:24.167Z,2.90
2022-12-22T10:14:53.104Z,2.90
2022-12-22T10:17:31.511Z,2.90
2022-12-22T10:20:22.738Z,2.90
2022-12-22T10:23:18.182Z,2.90
2022-12-22T10:28:47.700Z,2.90
2022-12-22T10:31:14.503Z,3.00
2022-12-22T10:33:46.791Z,2.90
2022-12-22T10:36:19.753Z,3.00
2022-12-22T10:39:00.752Z,2.90
2022-12-22T10:41:34.802Z,2.90
2022-12-22T10:44:18.946Z,3.00
2022-12-22T10:46:51.796Z,2.90
2022-12-22T10:49:25.559Z,2.90
2022-12-22T10:52:12.151Z,2.90
2022-12-22T10:54:42.517Z,3.00
2022-12-22T10:57:16.475Z,3.00
2022-12-22T11:00:00.477Z,3.00
2022-12-22T11:02:38.460Z,3.10
2022-12-22T11:05:11.348Z,3.10
2022-12-22T11:07:44.285Z,3.20
2022-12-22T11:10:32.488Z,3.20
2022-12-22T11:13:08.025Z,3.30
2022-12-22T11:15:37.541Z,3.40
2022-12-22T11:18:13.007Z,3.50
2022-12-22T11:21:04.678Z,3.60
2022-12-22T11:23:50.653Z,3.90
2022-12-22T11:26:45.971Z,3.90
2022-12-22T11:29:32.377Z,4.00
2022-12-22T11:32:19.536Z,4.00
2022-12-22T11:35:09.916Z,4.00
2022-12-22T11:37:39.752Z,3.90
2022-12-22T11:40:30.597Z,3.90
2022-12-22T11:43:00.244Z,3.80
2022-12-22T11:45:44.244Z,3.90
2022-12-22T11:48:36.363Z,3.90
2022-12-22T11:51:28.338Z,3.80
2022-12-22T11:54:24.682Z,3.80
2022-12-22T11:57:03.676Z,3.70
2022-12-22T11:59:30.454Z,3.70
2022-12-22T12:02:19.018Z,3.60
2022-12-22T12:05:04.023Z,3.60
2022-12-22T12:07:50.714Z,3.60
2022-12-22T12:10:29.101Z,3.70
2022-12-22T12:13:01.673Z,3.70
2022-12-22T12:15:38.023Z,3.60
2022-12-22T12:18:41.015Z,3.60
2022-12-22T12:21:10.918Z,3.60
2022-12-22T12:24:10.189Z,3.60
2022-12-22T12:26:58.058Z,3.60
2022-12-22T12:29:37.195Z,3.60
2022-12-22T12:32:20.465Z,3.60
2022-12-22T12:35:05.175Z,3.50
2022-12-22T12:37:38.725Z,3.50
2022-12-22T12:40:33.015Z,3.40
2022-12-22T12:43:00.844Z,3.40
2022-12-22T12:45:35.000Z,3.40
2022-12-22T12:48:20.701Z,3.50
2022-12-22T12:50:49.068Z,3.40
2022-12-22T12:53:17.450Z,3.40
2022-12-22T12:55:50.202Z,3.40
2022-12-22T12:58:35.417Z,3.40
2022-12-22T13:01:04.023Z,3.40
2022-12-22T13:04:01.974Z,3.50
2022-12-22T13:06:50.949Z,3.40
2022-12-22T13:09:49.365Z,3.40
2022-12-22T13:12:34.502Z,3.40
2022-12-22T13:15:01.869Z,3.40
2022-12-22T13:17:38.230Z,3.40
2022-12-22T13:20:11.412Z,3.40
2022-12-22T13:22:38.516Z,3.30
2022-12-22T13:25:05.934Z,3.40
2022-12-22T13:27:32.876Z,3.40
2022-12-22T13:30:00.111Z,3.40
2022-12-22T13:32:34.538Z,3.40
2022-12-22T13:35:35.524Z,3.40
2022-12-22T13:38:03.766Z,3.30
2022-12-22T13:40:44.096Z,3.30
2022-12-22T13:43:16.566Z,3.30
2022-12-22T13:45:50.809Z,3.20
2022-12-22T13:48:19.737Z,3.20
2022-12-22T13:50:51.228Z,3.20
2022-12-22T13:53:58.723Z,3.10
2022-12-22T13:56:19.559Z,3.10
2022-12-22T13:58:51.055Z,3.10
2022-12-22T14:01:19.566Z,3.10
2022-12-22T14:04:00.089Z,3.10
2022-12-22T14:06:40.307Z,3.10
2022-12-22T14:09:16.067Z,3.10
2022-12-22T14:11:52.518Z,3.10
2022-12-22T14:14:24.683Z,3.00
2022-12-22T14:16:53.955Z,3.00
2022-12-22T14:19:24.737Z,3.00
2022-12-22T14:22:02.342Z,3.00
2022-12-22T14:24:38.038Z,3.00
2022-12-22T14:27:06.773Z,3.00
2022-12-22T14:29:33.817Z,2.90
2022-12-22T14:32:02.825Z,2.90
2022-12-22T14:34:32.974Z,2.90
2022-12-22T14:37:01.914Z,2.90
2022-12-22T14:39:31.809Z,2.90
2022-12-22T14:42:01.727Z,2.80
2022-12-22T14:44:34.420Z,2.80
2022-12-22T14:47:01.149Z,2.80
2022-12-22T14:49:28.135Z,2.80
2022-12-22T14:52:06.146Z,2.80
2022-12-22T14:54:33.170Z,2.70
2022-12-22T14:57:15.661Z,2.80
2022-12-22T15:00:01.730Z,2.80
2022-12-22T15:02:40.327Z,2.70
2022-12-22T15:05:25.246Z,2.70
2022-12-22T15:08:05.219Z,2.70
2022-12-22T15:10:44.275Z,2.70
2022-12-22T15:13:18.827Z,2.70
2022-12-22T15:15:45.700Z,2.80
2022-12-22T15:18:15.274Z,2.70
2022-12-22T15:20:45.322Z,2.70
2022-12-22T15:23:16.665Z,2.70
2022-12-22T15:25:43.824Z,2.70
2022-12-22T15:28:10.755Z,2.70
2022-12-22T15:30:38.183Z,2.70
2022-12-22T15:33:09.771Z,2.70
2022-12-22T15:35:37.796Z,2.70
2022-12-22T15:38:14.445Z,2.70
2022-12-22T15:40:41.956Z,2.80
2022-12-22T15:43:28.868Z,2.80
2022-12-22T15:45:58.964Z,2.80
2022-12-22T15:48:30.036Z,2.70
2022-12-22T15:50:57.590Z,2.80
2022-12-22T15:53:24.598Z,2.80
2022-12-22T15:55:54.635Z,2.80
2022-12-22T15:58:29.039Z,2.80
2022-12-22T16:00:56.021Z,2.80
2022-12-22T16:03:23.018Z,2.80
2022-12-22T16:05:50.197Z,2.80
2022-12-22T16:08:22.697Z,2.80
2022-12-22T16:10:49.958Z,2.80
2022-12-22T16:13:25.798Z,2.80
2022-12-22T16:15:53.375Z,2.80
2022-12-22T16:18:20.174Z,2.80
2022-12-22T16:20:50.160Z,2.80
2022-12-22T16:23:22.768Z,2.80
2022-12-22T16:25:55.541Z,2.80
2022-12-22T16:28:25.981Z,2.80
2022-12-22T16:30:53.388Z,2.80
2022-12-22T16:33:20.498Z,2.80
2022-12-22T16:35:47.692Z,2.80
2022-12-22T16:38:18.461Z,2.80
2022-12-22T16:40:49.215Z,2.80
2022-12-22T16:43:51.106Z,2.80
2022-12-22T16:46:21.004Z,2.80
2022-12-22T16:48:59.811Z,2.80
2022-12-22T16:51:30.000Z,2.80
2022-12-22T16:53:56.825Z,2.80
2022-12-22T16:56:27.146Z,2.80
2022-12-22T16:58:54.040Z,2.70
2022-12-22T17:01:47.300Z,2.70
2022-12-22T17:04:21.742Z,2.70
2022-12-22T17:06:50.701Z,2.70
2022-12-22T17:09:24.586Z,2.70
2022-12-22T17:11:54.334Z,2.70
2022-12-22T17:14:37.266Z,2.70
2022-12-22T17:17:09.307Z,2.70
2022-12-22T17:19:37.443Z,2.70
2022-12-22T17:22:06.382Z,2.70
2022-12-22T17:24:35.096Z,2.70
2022-12-22T17:27:07.125Z,2.70
2022-12-22T17:29:37.496Z,2.60
2022-12-22T17:32:07.859Z,2.60
2022-12-22T17:34:38.188Z,2.60
2022-12-22T17:37:18.367Z,2.60
2022-12-22T17:39:47.223Z,2.50
2022-12-22T17:42:29.083Z,2.50
2022-12-22T17:44:56.516Z,2.50
2022-12-22T17:47:33.432Z,2.50
2022-12-22T17:50:03.077Z,2.60
2022-12-22T17:52:33.580Z,2.60
2022-12-22T17:55:00.574Z,2.60
2022-12-22T17:57:32.916Z,2.70
2022-12-22T18:00:00.601Z,2.70
2022-12-22T18:02:29.601Z,2.70
2022-12-22T18:04:56.678Z,2.70
2022-12-22T18:07:24.752Z,2.70
2022-12-22T18:09:56.374Z,2.70
2022-12-22T18:12:27.333Z,2.70
2022-12-22T18:14:54.265Z,2.70
2022-12-22T18:17:33.190Z,2.70
2022-12-22T18:20:02.410Z,2.70
2022-12-22T18:22:29.712Z,2.80
2022-12-22T18:24:57.170Z,2.80
2022-12-22T18:27:24.355Z,2.80
2022-12-22T18:29:51.266Z,2.80
2022-12-22T18:32:26.276Z,2.80
2022-12-22T18:34:54.242Z,2.80
2022-12-22T18:37:21.286Z,2.80
2022-12-22T18:39:48.154Z,2.80
2022-12-22T18:42:24.031Z,2.80
2022-12-22T18:44:51.494Z,2.80
2022-12-22T18:47:18.913Z,2.80
2022-12-22T18:49:46.098Z,2.80
2022-12-22T18:52:22.472Z,2.80
2022-12-22T18:54:49.818Z,2.80
2022-12-22T18:57:18.715Z,2.80
2022-12-22T18:59:47.549Z,2.80
2022-12-22T19:02:28.045Z,2.80
2022-12-22T19:04:56.251Z,2.90
2022-12-22T19:07:25.013Z,2.90
2022-12-22T19:09:52.121Z,2.80
2022-12-22T19:12:23.161Z,2.80
2022-12-22T19:14:53.591Z,2.90
2022-12-22T19:17:23.919Z,2.80
2022-12-22T19:19:50.793Z,2.80
2022-12-22T19:22:17.581Z,2.80
2022-12-22T19:24:44.977Z,2.80
2022-12-22T19:27:24.381Z,2.90
2022-12-22T19:30:02.575Z,2.90
2022-12-22T19:32:33.174Z,2.90
2022-12-22T19:35:00.071Z,2.90
2022-12-22T19:37:27.103Z,2.90
2022-12-22T19:39:53.901Z,2.90
2022-12-22T19:42:23.332Z,2.80
2022-12-22T19:44:50.195Z,2.80
2022-12-22T19:47:24.277Z,2.80
2022-12-22T19:49:51.054Z,2.80
2022-12-22T19:52:17.928Z,2.80
2022-12-22T19:54:44.745Z,2.80
2022-12-22T19:57:19.535Z,2.90
2022-12-22T19:59:49.744Z,2.90
2022-12-22T20:02:28.556Z,2.90
2022-12-22T20:04:56.426Z,2.90
2022-12-22T20:07:25.849Z,2.90
2022-12-22T20:09:52.788Z,2.80
2022-12-22T20:12:26.270Z,2.90
2022-12-22T20:14:53.588Z,2.90
2022-12-22T20:17:20.795Z,2.90
2022-12-22T20:19:47.938Z,2.90
2022-12-22T20:22:20.453Z,2.80
2022-12-22T20:24:49.875Z,2.90
2022-12-22T20:27:31.573Z,2.90
2022-12-22T20:29:59.404Z,2.80
2022-12-22T20:32:28.250Z,2.80
2022-12-22T20:34:55.824Z,2.90
2022-12-22T20:37:22.680Z,2.80
2022-12-22T20:39:49.522Z,2.80
2022-12-22T20:42:21.833Z,2.80
2022-12-22T20:45:03.132Z,2.70
2022-12-22T20:47:32.470Z,2.70
2022-12-22T20:49:59.555Z,2.70
2022-12-22T20:52:26.383Z,2.80
2022-12-22T20:54:53.236Z,2.80
2022-12-22T20:57:22.722Z,2.80
2022-12-22T20:59:57.052Z,2.80
2022-12-22T21:02:27.649Z,2.80
2022-12-22T21:04:54.985Z,3.00
2022-12-22T21:07:21.974Z,3.10
2022-12-22T21:09:48.871Z,3.10
2022-12-22T21:12:15.721Z,3.10
2022-12-22T21:14:42.596Z,3.10
2022-12-22T21:17:17.082Z,3.00
2022-12-22T21:19:44.337Z,3.00
2022-12-22T21:22:12.765Z,3.00
2022-12-22T21:24:41.857Z,3.00
2022-12-22T21:27:16.670Z,3.00
2022-12-22T21:29:43.670Z,3.00
2022-12-22T21:32:15.377Z,3.00
2022-12-22T21:34:42.715Z,3.10
2022-12-22T21:37:18.671Z,3.30
2022-12-22T21:39:46.075Z,3.50
2022-12-22T21:42:20.144Z,3.60
2022-12-22T21:44:51.806Z,3.70
2022-12-22T21:47:22.193Z,3.70
2022-12-22T21:49:52.642Z,3.70
2022-12-22T21:52:19.556Z,3.80
2022-12-22T21:54:46.503Z,3.90
2022-12-22T21:57:21.185Z,3.80
2022-12-22T21:59:52.544Z,3.80
2022-12-22T22:02:21.135Z,3.80
2022-12-22T22:04:54.829Z,3.80
2022-12-22T22:07:22.339Z,3.80
2022-12-22T22:09:49.275Z,3.80
2022-12-22T22:12:36.448Z,3.80
2022-12-22T22:15:13.563Z,3.80
2022-12-22T22:17:40.989Z,3.90
2022-12-22T22:20:13.329Z,3.90
2022-12-22T22:22:40.600Z,3.90
2022-12-22T22:25:08.341Z,4.00
2022-12-22T22:27:35.139Z,4.00
2022-12-22T22:30:03.359Z,4.00
2022-12-22T22:32:30.296Z,4.00
2022-12-22T22:34:57.191Z,4.00
2022-12-22T22:37:24.048Z,4.00
2022-12-22T22:39:51.908Z,4.00
2022-12-22T22:42:19.577Z,4.00
2022-12-22T22:44:46.824Z,4.00
2022-12-22T22:47:13.675Z,4.00
2022-12-22T22:49:40.549Z,4.10
2022-12-22T22:52:07.437Z,4.00
2022-12-22T22:54:34.301Z,4.00
2022-12-22T22:57:01.149Z,4.00
2022-12-22T22:59:28.095Z,4.00
2022-12-22T23:01:55.147Z,4.10
2022-12-22T23:04:22.107Z,4.10
2022-12-22T23:06:49.125Z,4.00
2022-12-22T23:09:15.943Z,4.00
2022-12-22T23:11:43.185Z,4.10
2022-12-22T23:14:10.284Z,4.10
2022-12-22T23:16:38.597Z,4.10
2022-12-22T23:19:07.839Z,4.10
2022-12-22T23:21:37.470Z,4.10
2022-12-22T23:24:04.475Z,4.10
2022-12-22T23:26:34.033Z,4.10
2022-12-22T23:29:04.248Z,4.10
2022-12-22T23:31:32.904Z,4.10
2022-12-22T23:34:00.114Z,4.10
2022-12-22T23:36:27.144Z,4.10
2022-12-22T23:38:54.149Z,4.10
2022-12-22T23:41:23.450Z,4.10
2022-12-22T23:43:50.782Z,4.10
2022-12-22T23:46:18.169Z,4.10
2022-12-22T23:48:49.749Z,4.10
2022-12-22T23:51:18.370Z,4.00
2022-12-22T23:53:45.323Z,4.00
2022-12-22T23:56:12.650Z,4.00
2022-12-22T23:58:39.764Z,4.10
